Time;durP1;ratioP1;P1;durP2;ratioP2;P2;SDS_P1;SDS_P2;PMS_P1;PMS_P2;Temp;Humidity;BMP_temperature;BMP_pressure;BME280_temperature;BME280_humidity;BME280_pressure;Samples;Min_cycle;Max_cycle;Signal;HPM_P1;HPM_P2
2023/05/21 00:02:00;;;;;;;21.67;19.37;;;;;;;10.10;98.08;97746.78;6216132;28;20234;-88
2023/05/21 00:05:03;;;;;;;21.53;19.03;;;;;;;8.61;97.48;97515.34;6204349;28;20722;-90
2023/05/21 00:08:05;;;;;;;22.80;19.67;;;;;;;8.93;97.74;97588.31;6197760;28;20232;-90
2023/05/21 00:11:08;;;;;;;19.60;16.77;;;;;;;10.11;97.30;97769.69;6198458;28;20757;-90
2023/05/21 00:14:10;;;;;;;21.33;17.27;;;;;;;9.73;97.55;97709.03;6201940;28;20228;-90
2023/05/21 00:17:13;;;;;;;19.77;16.90;;;;;;;9.44;97.19;97674.41;6216050;28;20234;-90
2023/05/21 00:20:16;;;;;;;21.23;17.67;;;;;;;9.99;97.54;97761.72;6197146;28;20231;-90
2023/05/21 00:23:18;;;;;;;23.97;18.50;;;;;;;9.85;97.90;97717.00;6199165;28;20260;-90
2023/05/21 00:26:32;;;;;;;20.73;16.93;;;;;;;9.22;97.41;97660.13;6198314;28;20748;-90
2023/05/21 00:29:38;;;;;;;21.23;17.73;;;;;;;9.97;97.45;97773.66;6196365;28;20252;-90
2023/05/21 00:33:09;;;;;;;20.97;17.20;;;;;;;11.05;97.69;97983.34;6188163;28;20231;-90
2023/05/21 00:36:33;;;;;;;21.37;17.57;;;;;;;8.94;97.32;97647.56;6185493;28;20300;-90
2023/05/21 00:39:35;;;;;;;20.53;17.63;;;;;;;9.73;97.73;97754.28;6197912;28;20235;-89
2023/05/21 00:42:38;;;;;;;20.83;17.17;;;;;;;8.61;97.75;97560.50;6212145;28;20764;-90
2023/05/21 00:45:46;;;;;;;21.50;17.03;;;;;;;9.48;97.70;97706.69;6198570;28;20238;-89
2023/05/21 00:48:50;;;;;;;19.53;17.03;;;;;;;10.41;97.62;97883.19;6198012;28;20295;-90
2023/05/21 00:51:53;;;;;;;21.40;18.47;;;;;;;8.96;97.26;97619.69;6196960;28;20231;-89
2023/05/21 00:54:55;;;;;;;20.57;17.83;;;;;;;9.50;97.41;97726.66;6205736;28;20492;-89
2023/05/21 00:57:58;;;;;;;23.23;17.97;;;;;;;8.92;97.33;97647.81;6235933;28;20329;-90
2023/05/21 01:01:02;;;;;;;19.57;17.33;;;;;;;9.34;97.34;97751.31;6212586;28;20231;-89
2023/05/21 01:04:05;;;;;;;18.80;16.80;;;;;;;9.29;97.60;97714.78;6220857;28;20725;-90
2023/05/21 01:07:08;;;;;;;22.23;19.00;;;;;;;10.05;97.98;97845.97;6218856;28;20239;-90
2023/05/21 01:10:11;;;;;;;17.70;15.53;;;;;;;10.64;97.64;97948.91;6227704;28;20230;-89
2023/05/21 01:13:15;;;;;;;18.33;16.33;;;;;;;10.07;97.68;97833.22;6227534;28;20266;-90
2023/05/21 01:16:17;;;;;;;17.97;15.93;;;;;;;9.55;97.66;97771.97;6224903;28;20256;-90
2023/05/21 01:19:22;;;;;;;19.17;16.77;;;;;;;10.71;98.02;97938.94;6223208;28;20239;-90
2023/05/21 01:22:27;;;;;;;21.93;18.13;;;;;;;9.26;97.65;97715.25;6227114;28;20241;-89
2023/05/21 01:25:30;;;;;;;19.90;17.77;;;;;;;8.46;97.72;97608.75;6223544;28;20366;-89
2023/05/21 01:28:33;;;;;;;20.20;17.97;;;;;;;9.00;97.76;97681.16;6242017;28;20292;-89
2023/05/21 01:31:52;;;;;;;21.87;18.67;;;;;;;8.38;97.92;97601.13;6223821;28;20785;-89
2023/05/21 01:35:10;;;;;;;20.83;18.43;;;;;;;10.52;98.07;97922.31;6240812;28;20268;-89
2023/05/21 01:38:39;;;;;;;22.40;17.50;;;;;;;8.91;97.91;97674.56;6222885;28;20604;-90
2023/05/21 01:41:44;;;;;;;22.03;17.47;;;;;;;8.91;98.05;97678.03;6211036;28;20238;-90
2023/05/21 01:44:50;;;;;;;18.07;15.83;;;;;;;8.85;97.99;97662.22;6243201;28;20232;-91
2023/05/21 01:47:54;;;;;;;19.57;16.67;;;;;;;8.62;97.83;97661.19;6224066;28;20745;-90
2023/05/21 01:51:00;;;;;;;20.53;18.27;;;;;;;8.97;98.25;97695.75;6227380;28;20239;-90
2023/05/21 01:54:03;;;;;;;23.93;19.10;;;;;;;9.69;98.89;97787.69;6225103;28;20615;-90
2023/05/21 01:57:05;;;;;;;21.20;16.67;;;;;;;9.88;98.39;97813.13;6231586;28;20223;-90
2023/05/21 02:00:09;;;;;;;20.50;17.67;;;;;;;8.51;97.91;97627.44;6225932;28;20215;-90
2023/05/21 02:03:17;;;;;;;21.53;16.30;;;;;;;8.51;97.77;97606.22;6256134;28;20214;-90
2023/05/21 02:06:19;;;;;;;22.03;17.97;;;;;;;9.40;97.89;97774.28;6238281;28;20818;-90
2023/05/21 02:09:22;;;;;;;18.20;16.07;;;;;;;8.25;97.84;97594.16;6228371;28;20346;-90
2023/05/21 02:12:24;;;;;;;22.53;18.23;;;;;;;8.61;98.22;97646.28;6229399;28;20237;-90
2023/05/21 02:15:27;;;;;;;21.27;18.00;;;;;;;9.59;99.11;97809.56;6240638;28;20329;-90
2023/05/21 02:18:29;;;;;;;21.03;18.43;;;;;;;8.68;98.36;97672.72;6223691;28;20768;-90
2023/05/21 02:21:31;;;;;;;21.50;17.60;;;;;;;9.09;98.43;97717.00;6240049;28;20226;-90
2023/05/21 02:24:34;;;;;;;21.10;18.30;;;;;;;9.11;98.72;97762.72;6227276;28;20234;-89
2023/05/21 02:27:37;;;;;;;23.77;18.57;;;;;;;10.24;98.61;97933.69;6255970;28;20229;-90
2023/05/21 02:30:40;;;;;;;19.47;16.77;;;;;;;8.93;98.06;97728.31;6239872;28;20235;-90
2023/05/21 02:33:42;;;;;;;19.07;15.73;;;;;;;9.42;98.59;97800.69;6241382;28;20230;-90
2023/05/21 02:36:51;;;;;;;21.93;18.33;;;;;;;8.32;98.90;97626.69;6246844;28;20229;-89
2023/05/21 02:39:54;;;;;;;22.97;19.40;;;;;;;9.85;98.95;97850.03;6225459;28;20752;-89
2023/05/21 02:42:56;;;;;;;23.70;19.27;;;;;;;9.26;98.95;97747.16;6240281;28;20245;-90
2023/05/21 02:45:58;;;;;;;24.07;18.73;;;;;;;8.45;98.92;97652.25;6206679;28;20257;-90
2023/05/21 02:49:02;;;;;;;24.43;19.70;;;;;;;9.07;98.95;97737.69;6207297;28;20240;-90
2023/05/21 02:52:05;;;;;;;23.80;19.20;;;;;;;8.35;98.73;97622.78;6239911;28;20230;-89
2023/05/21 02:55:08;;;;;;;28.43;21.87;;;;;;;8.38;99.48;97638.31;6241407;28;20238;-89
2023/05/21 02:58:12;;;;;;;24.47;20.77;;;;;;;8.75;99.32;97708.75;6240702;28;20245;-90
2023/05/21 03:01:15;;;;;;;23.37;19.63;;;;;;;9.18;98.86;97766.09;6238369;28;20718;-90
2023/05/21 03:04:20;;;;;;;23.03;19.83;;;;;;;8.41;99.27;97643.13;6241441;28;20237;-89
2023/05/21 03:07:23;;;;;;;24.00;18.67;;;;;;;7.82;99.14;97550.13;6220593;28;20245;-89
2023/05/21 03:10:25;;;;;;;28.30;19.63;;;;;;;8.25;99.38;97623.34;6221567;28;20249;-89
2023/05/21 03:13:28;;;;;;;22.27;19.40;;;;;;;8.81;99.32;97688.44;6242152;28;20312;-90
2023/05/21 03:16:33;;;;;;;26.73;19.27;;;;;;;9.08;99.86;97727.84;6223875;28;20776;-90
2023/05/21 03:19:35;;;;;;;29.43;20.13;;;;;;;10.04;99.82;97902.88;6239696;28;20325;-90
2023/05/21 03:22:38;;;;;;;26.57;20.83;;;;;;;8.87;99.50;97694.69;6238011;28;20230;-89
2023/05/21 03:25:41;;;;;;;24.67;19.90;;;;;;;7.48;99.76;97480.88;6239016;28;20383;-89
2023/05/21 03:28:44;;;;;;;22.63;19.07;;;;;;;8.45;99.53;97621.22;6237614;28;20242;-89
2023/05/21 03:31:46;;;;;;;24.13;18.47;;;;;;;9.70;99.89;97830.00;6227235;28;20238;-89
2023/05/21 03:34:49;;;;;;;26.83;19.97;;;;;;;10.11;100.00;97908.09;6241567;28;20234;-89
2023/05/21 03:37:52;;;;;;;23.67;20.53;;;;;;;8.41;99.58;97643.94;6239852;28;20292;-89
2023/05/21 03:40:54;;;;;;;25.63;19.80;;;;;;;8.08;99.61;97564.00;6238410;28;20242;-89
2023/05/21 03:43:57;;;;;;;28.57;20.47;;;;;;;8.35;99.93;97641.38;6234149;28;20276;-89
2023/05/21 03:47:04;;;;;;;26.60;20.47;;;;;;;9.38;99.94;97792.34;6224349;28;20233;-90
2023/05/21 03:50:09;;;;;;;23.30;20.07;;;;;;;8.51;99.65;97644.19;6223190;28;20257;-89
2023/05/21 03:53:12;;;;;;;22.70;19.40;;;;;;;10.14;100.00;97901.50;6238595;28;20296;-89
2023/05/21 03:56:15;;;;;;;23.17;19.00;;;;;;;8.78;99.86;97684.41;6236909;28;20254;-90
2023/05/21 03:59:17;;;;;;;26.17;19.90;;;;;;;9.38;100.00;97795.00;6209036;28;20237;-90
2023/05/21 04:02:21;;;;;;;24.00;18.87;;;;;;;8.39;100.00;97611.53;6209580;28;20297;-90
2023/05/21 04:05:24;;;;;;;23.93;19.00;;;;;;;6.77;100.00;97356.41;6237608;28;20714;-90
2023/05/21 04:08:26;;;;;;;25.50;18.50;;;;;;;8.96;100.00;97741.13;6203807;28;20596;-90
2023/05/21 04:11:30;;;;;;;23.97;19.43;;;;;;;9.23;100.00;97746.81;6238572;28;20230;-90
2023/05/21 04:14:33;;;;;;;23.60;20.40;;;;;;;9.39;100.00;97780.66;6229599;28;20234;-91
2023/05/21 04:17:35;;;;;;;24.30;21.33;;;;;;;8.53;100.00;97618.22;6225577;28;20227;-90
2023/05/21 04:20:37;;;;;;;21.30;19.00;;;;;;;8.78;100.00;97657.03;6236623;28;20231;-90
2023/05/21 04:23:40;;;;;;;19.93;17.83;;;;;;;8.99;100.00;97682.22;6242375;28;20733;-89
2023/05/21 04:26:51;;;;;;;22.40;19.13;;;;;;;9.38;100.00;97744.50;6238143;28;20241;-90
2023/05/21 04:29:53;;;;;;;25.17;19.97;;;;;;;9.08;100.00;97693.31;6254426;28;20735;-90
2023/05/21 04:32:58;;;;;;;21.70;17.87;;;;;;;8.57;100.00;97604.47;6221917;28;20291;-89
2023/05/21 04:36:02;;;;;;;23.77;20.00;;;;;;;8.26;100.00;97555.97;6236541;28;20235;-90
2023/05/21 04:39:06;;;;;;;23.53;19.70;;;;;;;9.32;100.00;97732.13;6239590;28;20210;-90
2023/05/21 04:42:10;;;;;;;24.37;19.40;;;;;;;9.82;100.00;97798.09;6220210;28;20220;-91
2023/05/21 04:45:12;;;;;;;25.00;20.83;;;;;;;8.78;100.00;97619.84;6245939;28;20325;-90
2023/05/21 04:48:18;;;;;;;27.03;20.40;;;;;;;9.68;100.00;97784.22;6247971;28;20242;-89
2023/05/21 04:51:23;;;;;;;25.10;21.57;;;;;;;9.54;100.00;97684.47;6224750;28;20581;-90
2023/05/21 04:54:26;;;;;;;28.03;21.07;;;;;;;9.62;100.00;97705.38;6227187;28;20230;-90
2023/05/21 04:57:29;;;;;;;27.47;22.30;;;;;;;8.48;100.00;97508.47;6226623;28;20619;-90
2023/05/21 05:00:33;;;;;;;24.23;20.37;;;;;;;9.82;100.00;97707.63;6242178;28;20223;-89
2023/05/21 05:03:36;;;;;;;27.33;21.83;;;;;;;9.47;100.00;97657.19;6240979;28;20580;-90
2023/05/21 05:06:38;;;;;;;25.90;22.37;;;;;;;9.42;100.00;97643.81;6257975;28;20727;-90
2023/05/21 05:09:43;;;;;;;27.20;22.23;;;;;;;8.40;100.00;97469.00;6241003;28;20761;-90
2023/05/21 05:12:45;;;;;;;25.77;21.97;;;;;;;9.81;100.00;97680.22;6244505;28;20231;-90
2023/05/21 05:15:48;;;;;;;27.13;21.03;;;;;;;10.60;100.00;97783.44;6240878;28;20239;-90
2023/05/21 05:18:55;;;;;;;25.87;21.43;;;;;;;10.08;100.00;97701.75;6258030;28;20304;-90
2023/05/21 05:21:57;;;;;;;25.73;21.00;;;;;;;9.47;100.00;97628.75;6255462;28;20269;-90
2023/05/21 05:24:59;;;;;;;22.50;19.10;;;;;;;9.58;100.00;97608.47;6242777;28;20239;-91
2023/05/21 05:28:02;;;;;;;22.77;19.77;;;;;;;10.77;100.00;97786.09;6229048;28;20634;-90
2023/05/21 05:31:05;;;;;;;20.43;18.23;;;;;;;9.16;100.00;97520.19;6226344;28;20231;-91
2023/05/21 05:34:08;;;;;;;22.47;20.07;;;;;;;11.04;100.00;97816.44;6224015;28;20237;-91
2023/05/21 05:37:11;;;;;;;25.00;20.37;;;;;;;10.12;100.00;97651.50;6242306;28;20235;-90
2023/05/21 05:40:14;;;;;;;25.00;20.57;;;;;;;10.69;100.00;97736.69;6224263;28;20238;-90
2023/05/21 05:43:18;;;;;;;26.23;20.40;;;;;;;9.80;100.00;97569.53;6246613;28;20377;-91
2023/05/21 05:46:31;;;;;;;23.33;19.77;;;;;;;8.70;100.00;97440.41;6232858;28;20259;-96
2023/05/21 05:49:40;;;;;;;25.83;21.23;;;;;;;9.24;100.00;97488.72;6274311;28;20262;-96
2023/05/21 05:52:50;;;;;;;28.20;21.73;;;;;;;8.94;100.00;97382.69;6249307;28;20236;-95
2023/05/21 05:56:13;;;;;;;26.60;20.97;;;;;;;9.43;100.00;97481.38;6237508;28;20243;-96
2023/05/21 05:59:41;;;;;;;22.77;19.87;;;;;;;10.99;100.00;97674.28;6274571;28;20223;-96
2023/05/21 06:02:58;;;;;;;25.00;19.50;;;;;;;11.51;100.00;97781.41;6262326;28;20239;-96
2023/05/21 06:06:44;;;;;;;22.47;19.00;;;;;;;9.58;100.00;97467.53;6243881;28;20240;-96
2023/05/21 06:10:19;;;;;;;21.60;18.37;;;;;;;10.24;100.00;97503.19;6255070;28;20323;-96
2023/05/21 06:14:46;;;;;;;;;;;;;;;;;;;;;
2023/05/21 06:18:38;;;;;;;21.00;17.63;;;;;;;10.18;100.00;97448.25;6259346;28;20208;-96
2023/05/21 06:22:06;;;;;;;18.77;16.87;;;;;;;10.23;100.00;97413.69;6222274;28;20214;-96
2023/05/21 06:25:09;;;;;;;17.53;15.70;;;;;;;13.66;100.00;97895.03;6147107;28;20223;-52
2023/05/21 06:28:12;;;;;;;16.03;14.33;;;;;;;13.84;100.00;97893.00;6145407;28;20270;-53
2023/05/21 06:31:15;;;;;;;18.30;14.00;;;;;;;14.04;98.23;97900.34;6138404;28;20962;-53
2023/05/21 06:34:18;;;;;;;15.37;13.43;;;;;;;14.24;97.40;97892.47;6157918;28;20237;-49
2023/05/21 06:37:20;;;;;;;14.27;12.40;;;;;;;14.42;95.58;97897.34;6145141;28;20280;-53
2023/05/21 06:40:25;;;;;;;13.40;11.70;;;;;;;14.60;94.49;97895.31;6130237;28;20372;-52
2023/05/21 06:43:31;;;;;;;13.83;12.33;;;;;;;14.78;93.92;97891.34;6144765;28;20554;-52
2023/05/21 06:46:51;;;;;;;15.00;11.83;;;;;;;14.89;92.76;97896.50;6146234;28;20242;-51
2023/05/21 06:49:54;;;;;;;12.37;11.03;;;;;;;15.08;87.08;97888.78;6149439;28;20659;-51
2023/05/21 06:52:56;;;;;;;11.60;10.37;;;;;;;15.59;80.26;97896.06;6152160;28;20234;-53
2023/05/21 06:55:58;;;;;;;13.37;10.83;;;;;;;15.91;81.34;97887.72;6144985;28;20248;-53
2023/05/21 06:59:13;;;;;;;10.90;9.80;;;;;;;15.80;83.71;97888.81;6159164;28;20261;-53
2023/05/21 07:02:15;;;;;;;10.43;9.33;;;;;;;15.72;84.08;97876.75;6161566;28;20234;-53
2023/05/21 07:05:18;;;;;;;10.93;9.83;;;;;;;15.85;81.39;97892.31;6124117;28;20703;-49
2023/05/21 07:08:20;;;;;;;13.90;10.00;;;;;;;16.17;77.08;97896.56;6147993;28;20244;-60
2023/05/21 07:11:27;;;;;;;12.10;9.73;;;;;;;16.53;72.29;97899.94;6145775;28;20222;-60
2023/05/21 07:14:31;;;;;;;10.00;8.93;;;;;;;16.82;72.93;97899.31;6159835;28;20480;-60
2023/05/21 07:17:34;;;;;;;9.17;8.30;;;;;;;16.86;75.46;97895.00;6144510;28;20729;-60
2023/05/21 07:20:37;;;;;;;11.23;10.07;;;;;;;16.91;73.29;97894.97;6167674;28;20320;-60
2023/05/21 07:23:41;;;;;;;9.17;8.27;;;;;;;16.91;76.38;97897.66;6171705;28;20323;-60
2023/05/21 07:26:44;;;;;;;11.07;9.40;;;;;;;16.95;75.45;97902.22;6167272;28;20221;-60
2023/05/21 07:29:46;;;;;;;10.30;9.17;;;;;;;17.17;69.36;97907.19;6168870;28;20229;-60
2023/05/21 07:32:50;;;;;;;13.77;10.80;;;;;;;17.35;68.43;97896.88;6168500;28;20312;-59
2023/05/21 07:35:53;;;;;;;10.17;9.10;;;;;;;17.45;69.28;97894.09;6167785;28;20245;-59
2023/05/21 07:38:57;;;;;;;10.77;9.40;;;;;;;17.56;68.96;97895.63;6166565;28;20237;-59
2023/05/21 07:42:00;;;;;;;11.03;9.40;;;;;;;17.63;69.88;97889.91;6166022;28;20696;-59
2023/05/21 07:45:02;;;;;;;10.47;9.33;;;;;;;17.49;68.01;97879.78;6170072;28;20240;-60
2023/05/21 07:48:10;;;;;;;9.47;8.20;;;;;;;17.68;71.08;97884.47;6173548;28;20716;-59
2023/05/21 07:51:24;;;;;;;11.13;8.73;;;;;;;17.66;72.39;97897.44;6172614;28;20238;-59
2023/05/21 07:54:26;;;;;;;11.57;9.30;;;;;;;17.70;68.60;97893.09;6168804;28;20729;-60
2023/05/21 07:57:29;;;;;;;11.67;10.27;;;;;;;17.74;68.30;97894.16;6158375;28;20304;-59
2023/05/21 08:00:43;;;;;;;10.30;9.27;;;;;;;18.00;66.94;97892.03;6167163;28;20235;-59
2023/05/21 08:03:46;;;;;;;11.47;8.43;;;;;;;18.07;66.54;97886.31;6165671;28;20737;-59
2023/05/21 08:06:48;;;;;;;10.53;8.90;;;;;;;18.14;66.83;97890.28;6165528;28;20233;-59
2023/05/21 08:09:52;;;;;;;10.20;8.77;;;;;;;18.31;64.95;97892.50;6168528;28;20233;-59
2023/05/21 08:12:56;;;;;;;13.37;8.50;;;;;;;18.55;65.88;97898.72;6166174;28;20247;-59
2023/05/21 08:16:01;;;;;;;9.80;8.80;;;;;;;18.68;63.49;97896.44;6169461;28;20341;-60
2023/05/21 08:19:03;;;;;;;9.77;8.60;;;;;;;18.80;65.76;97905.72;6170990;28;20591;-60
2023/05/21 08:22:06;;;;;;;11.57;9.10;;;;;;;18.81;63.43;97901.94;6153886;28;20571;-58
2023/05/21 08:25:11;;;;;;;8.57;7.83;;;;;;;18.70;67.37;97905.84;6146751;28;20241;-60
2023/05/21 08:28:13;;;;;;;13.07;9.80;;;;;;;18.69;65.27;97911.56;6145588;28;20231;-59
2023/05/21 08:31:20;;;;;;;10.17;9.10;;;;;;;18.93;65.41;97916.91;6134061;28;20242;-56
2023/05/21 08:34:25;;;;;;;11.07;9.60;;;;;;;19.06;62.44;97905.38;6151671;28;20273;-52
2023/05/21 08:37:42;;;;;;;12.20;10.20;;;;;;;18.99;63.38;97907.66;6172089;28;20240;-57
2023/05/21 08:40:53;;;;;;;10.40;9.33;;;;;;;18.94;64.54;97902.31;6179728;28;20232;-55
2023/05/21 08:43:56;;;;;;;10.90;9.73;;;;;;;19.22;62.65;97906.00;6178846;28;20245;-56
2023/05/21 08:47:05;;;;;;;13.50;8.03;;;;;;;19.14;63.75;97899.34;6161045;28;20737;-53
2023/05/21 08:50:10;;;;;;;9.67;8.77;;;;;;;19.18;65.71;97916.56;6179684;28;20313;-57
2023/05/21 08:53:13;;;;;;;13.53;9.63;;;;;;;19.17;62.70;97909.56;6157962;28;20236;-55
2023/05/21 08:56:33;;;;;;;10.73;9.63;;;;;;;19.26;63.09;97912.38;6176881;28;20225;-59
2023/05/21 08:59:38;;;;;;;13.77;9.73;;;;;;;19.42;62.13;97911.09;6176809;28;20245;-59
2023/05/21 09:02:46;;;;;;;12.83;9.77;;;;;;;19.20;61.83;97898.16;6157729;28;20277;-60
2023/05/21 09:05:53;;;;;;;8.80;7.87;;;;;;;19.26;63.74;97894.31;6173975;28;20262;-61
2023/05/21 09:09:09;;;;;;;9.17;8.20;;;;;;;19.39;64.92;97913.56;6158273;28;20326;-59
2023/05/21 09:12:19;;;;;;;10.03;9.00;;;;;;;19.65;61.12;97890.47;6162951;28;20253;-60
2023/05/21 09:15:22;;;;;;;10.37;8.90;;;;;;;19.52;60.54;97866.91;6181691;28;20228;-60
2023/05/21 09:18:27;;;;;;;9.77;8.80;;;;;;;19.79;60.63;97894.03;6178748;28;20323;-61
2023/05/21 09:21:43;;;;;;;11.90;9.20;;;;;;;19.98;60.36;97896.69;6169835;28;20368;-61
2023/05/21 09:24:53;;;;;;;9.47;8.57;;;;;;;19.99;61.52;97890.16;6152506;28;20234;-60
2023/05/21 09:27:57;;;;;;;8.97;7.87;;;;;;;20.07;61.84;97897.59;6156139;28;20773;-61
2023/05/21 09:31:02;;;;;;;10.10;8.70;;;;;;;20.16;60.20;97892.31;6148802;28;20226;-61
2023/05/21 09:34:05;;;;;;;9.30;8.17;;;;;;;20.14;61.61;97889.09;6150972;28;20273;-61
2023/05/21 09:37:08;;;;;;;8.90;7.87;;;;;;;20.16;59.52;97886.09;6164752;28;20752;-61
2023/05/21 09:40:28;;;;;;;12.07;9.07;;;;;;;20.25;62.72;97887.81;6153755;28;20233;-63
2023/05/21 09:43:30;;;;;;;10.03;8.20;;;;;;;20.32;59.53;97892.81;6155948;28;20233;-60
2023/05/21 09:46:41;;;;;;;9.17;7.80;;;;;;;20.38;58.26;97882.69;6168777;28;20246;-61
2023/05/21 09:49:44;;;;;;;9.00;7.43;;;;;;;20.41;58.25;97885.63;6170136;28;20725;-61
2023/05/21 09:52:49;;;;;;;10.53;7.83;;;;;;;20.52;58.87;97895.16;6155289;28;20694;-60
2023/05/21 09:55:57;;;;;;;9.13;8.13;;;;;;;20.72;58.94;97895.84;6152712;28;20234;-61
2023/05/21 09:59:02;;;;;;;12.13;7.93;;;;;;;20.64;56.19;97889.25;6149807;28;20244;-61
2023/05/21 10:02:18;;;;;;;9.33;7.40;;;;;;;20.68;58.32;97886.72;6152980;28;20230;-61
2023/05/21 10:05:26;;;;;;;8.80;7.87;;;;;;;20.77;58.74;97880.31;6141968;28;20317;-61
2023/05/21 10:08:35;;;;;;;9.07;7.97;;;;;;;20.81;66.22;97889.44;6152598;28;20226;-60
2023/05/21 10:11:40;;;;;;;10.00;7.40;;;;;;;20.79;59.37;97886.22;6153481;28;20309;-59
2023/05/21 10:14:48;;;;;;;7.63;6.93;;;;;;;20.90;63.77;97886.00;6150272;28;20218;-59
2023/05/21 10:17:52;;;;;;;9.03;8.00;;;;;;;20.97;62.92;97873.66;6154658;28;20227;-60
2023/05/21 10:20:55;;;;;;;9.50;7.40;;;;;;;21.26;56.80;97880.59;6154264;28;20709;-59
2023/05/21 10:23:57;;;;;;;10.80;8.00;;;;;;;21.21;58.70;97878.81;6168491;28;20264;-59
2023/05/21 10:27:01;;;;;;;11.07;7.10;;;;;;;21.20;57.25;97874.50;6170188;28;20233;-59
2023/05/21 10:30:05;;;;;;;8.50;7.60;;;;;;;21.28;58.98;97887.31;6172828;28;20331;-59
2023/05/21 10:33:08;;;;;;;7.70;6.80;;;;;;;21.30;58.12;97876.16;6176145;28;20233;-59
2023/05/21 10:36:10;;;;;;;10.83;7.53;;;;;;;21.35;55.89;97876.88;6173624;28;20255;-60
2023/05/21 10:39:15;;;;;;;9.57;7.17;;;;;;;21.26;55.87;97872.47;6171332;28;20218;-60
2023/05/21 10:42:56;;;;;;;12.90;7.87;;;;;;;21.38;55.53;97867.34;6171044;28;20228;-60
2023/05/21 10:46:18;;;;;;;7.57;6.87;;;;;;;21.55;57.15;97877.50;6170569;28;20289;-60
2023/05/21 10:49:37;;;;;;;7.93;7.00;;;;;;;21.61;55.43;97865.41;6173044;28;20245;-59
2023/05/21 10:53:09;;;;;;;8.63;6.40;;;;;;;21.62;53.89;97867.84;6169709;28;20277;-60
2023/05/21 10:56:29;;;;;;;11.97;6.83;;;;;;;21.64;51.09;97862.09;6174469;28;20233;-59
2023/05/21 10:59:40;;;;;;;9.97;7.03;;;;;;;21.74;51.58;97853.72;6174984;28;20229;-60
2023/05/21 11:02:44;;;;;;;6.87;6.27;;;;;;;21.74;52.55;97853.72;6173874;28;20241;-59
2023/05/21 11:05:52;;;;;;;7.40;6.20;;;;;;;21.83;53.17;97849.13;6172808;28;20256;-59
2023/05/21 11:08:55;;;;;;;8.33;7.20;;;;;;;22.06;52.07;97854.50;6170571;28;20244;-59
2023/05/21 11:11:59;;;;;;;7.53;6.80;;;;;;;21.98;53.39;97853.34;6173297;28;20605;-60
2023/05/21 11:15:02;;;;;;;7.97;7.17;;;;;;;22.04;52.43;97852.09;6170786;28;20233;-59
2023/05/21 11:18:04;;;;;;;7.47;5.90;;;;;;;22.11;51.59;97852.47;6172810;28;20376;-58
2023/05/21 11:21:10;;;;;;;7.77;7.00;;;;;;;22.18;50.18;97852.03;6172986;28;20587;-59
2023/05/21 11:24:18;;;;;;;7.00;6.30;;;;;;;22.24;55.15;97852.69;6169901;28;20324;-59
2023/05/21 11:27:39;;;;;;;6.77;6.17;;;;;;;22.25;52.47;97838.00;6172217;28;20698;-59
2023/05/21 11:30:42;;;;;;;7.50;6.40;;;;;;;22.31;51.80;97853.84;6174854;28;20324;-59
2023/05/21 11:33:46;;;;;;;7.93;6.57;;;;;;;22.29;53.47;97856.06;6170214;28;20321;-59
2023/05/21 11:37:16;;;;;;;8.07;6.30;;;;;;;22.69;47.60;97855.22;6172933;28;20241;-60
2023/05/21 11:40:24;;;;;;;8.40;6.27;;;;;;;22.55;48.32;97839.84;6173502;28;20272;-59
2023/05/21 11:43:27;;;;;;;7.23;6.07;;;;;;;22.57;46.87;97842.28;6173349;28;20322;-59
2023/05/21 11:46:30;;;;;;;7.83;6.10;;;;;;;22.51;45.52;97846.22;6172251;28;20280;-59
2023/05/21 11:49:34;;;;;;;8.10;6.40;;;;;;;22.54;47.27;97840.19;6173022;28;20241;-58
2023/05/21 11:52:37;;;;;;;8.00;5.77;;;;;;;22.66;49.11;97840.38;6171208;28;20229;-59
2023/05/21 11:55:46;;;;;;;6.40;5.67;;;;;;;22.82;49.35;97832.56;6170867;28;20241;-57
2023/05/21 11:58:48;;;;;;;6.35;5.75;;;;;;;23.09;46.13;97840.44;6169954;28;20320;-59
2023/05/21 12:01:51;;;;;;;7.18;6.07;;;;;;;23.12;44.63;97836.28;6172276;28;20728;-59
2023/05/21 12:04:54;;;;;;;6.93;5.95;;;;;;;23.03;44.79;97843.66;6169568;28;20237;-59
2023/05/21 12:07:57;;;;;;;10.43;5.47;;;;;;;23.04;44.22;97837.09;6172183;28;20590;-59
2023/05/21 12:11:00;;;;;;;6.15;5.53;;;;;;;23.04;44.52;97837.09;6171185;28;20241;-59
2023/05/21 12:14:05;;;;;;;6.55;5.82;;;;;;;23.12;47.34;97831.66;6169425;28;20238;-59
2023/05/21 12:17:09;;;;;;;7.88;5.70;;;;;;;23.16;44.65;97820.94;6171503;28;20242;-60
2023/05/21 12:20:15;;;;;;;7.10;6.22;;;;;;;23.36;44.94;97833.09;6169605;28;20315;-59
2023/05/21 12:23:24;;;;;;;7.80;5.50;;;;;;;23.54;43.81;97821.06;6174229;28;20328;-59
2023/05/21 12:26:27;;;;;;;7.13;6.35;;;;;;;23.72;43.78;97829.22;6170262;28;20233;-59
2023/05/21 12:29:31;;;;;;;6.63;5.95;;;;;;;23.78;43.39;97831.44;6169719;28;20236;-59
2023/05/21 12:35:56;;;;;;;8.30;6.45;;;;;;;23.54;45.21;97814.81;6168383;28;20242;-45
2023/05/21 12:38:58;;;;;;;6.80;5.95;;;;;;;23.18;45.69;97813.25;6172324;28;20612;-48
2023/05/21 12:42:01;;;;;;;9.65;5.85;;;;;;;23.15;44.80;97817.44;6169630;28;20600;-46
2023/05/21 12:45:08;;;;;;;7.70;5.78;;;;;;;23.25;46.97;97823.66;6162695;28;20755;-46
2023/05/21 12:48:11;;;;;;;8.20;5.50;;;;;;;23.06;43.72;97811.22;6171265;28;20225;-47
2023/05/21 12:51:14;;;;;;;5.90;5.30;;;;;;;22.91;44.53;97800.81;6172226;28;20213;-46
2023/05/21 12:54:17;;;;;;;7.22;5.63;;;;;;;22.90;44.20;97794.56;6165935;28;20824;-47
2023/05/21 12:57:24;;;;;;;6.38;5.75;;;;;;;23.02;46.14;97804.00;6167624;28;20272;-43
2023/05/21 13:00:26;;;;;;;6.47;5.53;;;;;;;23.11;43.83;97797.44;6161671;28;20262;-45
2023/05/21 13:03:31;;;;;;;7.47;5.53;;;;;;;23.23;42.06;97802.22;6167754;28;20232;-46
2023/05/21 13:06:43;;;;;;;6.90;5.78;;;;;;;23.29;43.31;97806.38;6168326;28;20235;-48
2023/05/21 13:09:47;;;;;;;6.03;5.38;;;;;;;23.07;41.86;97799.22;6169130;28;20241;-45
2023/05/21 13:12:49;;;;;;;7.15;5.70;;;;;;;23.24;43.15;97801.09;6170790;28;20241;-46
2023/05/21 13:15:53;;;;;;;6.97;5.18;;;;;;;23.02;43.72;97774.91;6172529;28;20240;-45
2023/05/21 13:18:56;;;;;;;6.97;5.32;;;;;;;22.94;43.24;97775.72;6168497;28;20241;-47
2023/05/21 13:21:58;;;;;;;7.03;5.57;;;;;;;23.05;43.38;97781.63;6171512;28;20233;-45
2023/05/21 13:25:01;;;;;;;8.10;5.00;;;;;;;22.88;46.09;97782.41;6169657;28;20287;-44
2023/05/21 13:28:04;;;;;;;5.35;4.85;;;;;;;22.77;45.58;97779.19;6169247;28;20595;-48
2023/05/21 13:31:07;;;;;;;8.40;6.10;;;;;;;22.82;45.17;97779.03;6171374;28;20260;-46
2023/05/21 13:34:13;;;;;;;8.20;5.78;;;;;;;22.92;46.46;97777.97;6191303;28;20634;-46
2023/05/21 13:37:15;;;;;;;8.32;5.60;;;;;;;22.91;44.60;97777.16;6177272;28;20294;-47
2023/05/21 13:40:18;;;;;;;6.78;5.47;;;;;;;23.21;43.07;97768.34;6194370;28;20771;-45
2023/05/21 13:43:20;;;;;;;6.03;5.43;;;;;;;23.30;43.42;97771.81;6194751;28;20239;-47
2023/05/21 13:46:22;;;;;;;6.22;5.63;;;;;;;23.01;43.32;97765.16;6191180;28;20960;-45
2023/05/21 13:49:24;;;;;;;6.82;5.70;;;;;;;23.04;43.57;97759.06;6193852;28;20239;-47
2023/05/21 13:52:27;;;;;;;6.70;5.55;;;;;;;22.96;44.88;97765.34;6192476;28;20655;-47
2023/05/21 13:55:29;;;;;;;7.55;5.90;;;;;;;22.82;47.08;97748.38;6192819;28;20229;-47
2023/05/21 13:58:33;;;;;;;7.30;5.80;;;;;;;22.82;46.98;97753.81;6193894;28;20241;-47
2023/05/21 14:01:36;;;;;;;6.60;4.85;;;;;;;22.85;41.78;97756.66;6190802;28;20593;-48
2023/05/21 14:04:39;;;;;;;5.07;4.60;;;;;;;22.85;41.88;97762.09;6193202;28;20603;-48
2023/05/21 14:07:41;;;;;;;5.85;5.35;;;;;;;22.67;43.15;97749.66;6188391;28;20244;-47
2023/05/21 14:10:44;;;;;;;6.38;5.40;;;;;;;22.65;44.81;97762.72;6191531;28;20225;-48
2023/05/21 14:13:47;;;;;;;5.40;4.90;;;;;;;22.74;45.17;97757.31;6193735;28;20267;-46
2023/05/21 14:16:50;;;;;;;6.00;5.40;;;;;;;22.46;44.74;97738.59;6193452;28;20711;-46
2023/05/21 14:19:53;;;;;;;5.30;4.80;;;;;;;22.54;44.39;97753.28;6196587;28;20229;-47
2023/05/21 14:22:56;;;;;;;7.68;5.25;;;;;;;22.55;46.07;97757.59;6194487;28;20249;-49
2023/05/21 14:25:58;;;;;;;8.43;5.00;;;;;;;22.51;46.40;97753.91;6192073;28;20250;-48
2023/05/21 14:29:00;;;;;;;7.60;5.40;;;;;;;22.30;47.76;97745.59;6175857;28;20240;-45
2023/05/21 14:32:03;;;;;;;5.63;5.05;;;;;;;22.23;48.90;97742.56;6193935;28;20241;-47